createdAt,value
2022-12-23T00:02:08.097Z,95.94
2022-12-23T00:05:10.285Z,95.92
2022-12-23T00:08:12.204Z,96.15
2022-12-23T00:11:17.704Z,95.99
2022-12-23T00:14:38.343Z,95.91
2022-12-23T00:17:45.462Z,96.21
2022-12-23T00:20:47.238Z,95.81
2022-12-23T00:23:50.685Z,95.75
2022-12-23T00:26:52.532Z,95.83
2022-12-23T00:29:54.358Z,96.08
2022-12-23T00:32:56.156Z,95.87
2022-12-23T00:35:58.619Z,95.83
2022-12-23T00:39:18.980Z,95.71
2022-12-23T00:42:39.269Z,95.96
2022-12-23T00:45:41.184Z,95.81
2022-12-23T00:49:01.597Z,95.87
2022-12-23T00:52:05.551Z,96.07
2022-12-23T00:55:07.783Z,95.69
2022-12-23T00:58:09.637Z,95.73
2022-12-23T01:01:30.027Z,95.99
2022-12-23T01:04:50.637Z,95.89
2022-12-23T01:07:53.119Z,95.94
2022-12-23T01:10:55.489Z,95.76
2022-12-23T01:13:58.727Z,95.40
2022-12-23T01:17:00.812Z,95.10
2022-12-23T01:20:02.894Z,95.52
2022-12-23T01:23:04.892Z,95.45
2022-12-23T01:26:08.140Z,95.54
2022-12-23T01:29:10.018Z,95.13
2022-12-23T01:32:11.900Z,95.40
2022-12-23T01:35:13.976Z,95.27
2022-12-23T01:38:15.942Z,95.11
2022-12-23T01:41:42.715Z,95.20
2022-12-23T01:44:58.212Z,95.52
2022-12-23T01:48:03.327Z,95.28
2022-12-23T01:51:10.921Z,95.28
2022-12-23T01:54:13.021Z,95.36
2022-12-23T01:57:15.707Z,95.30
2022-12-23T02:00:36.669Z,95.00
2022-12-23T02:03:44.675Z,95.20
2022-12-23T02:07:08.000Z,95.00
2022-12-23T02:10:10.349Z,95.52
2022-12-23T02:13:22.404Z,95.04
2022-12-23T02:16:24.421Z,95.41
2022-12-23T02:19:57.109Z,94.89
2022-12-23T02:23:18.515Z,94.77
2022-12-23T02:26:35.536Z,94.96
2022-12-23T02:30:01.807Z,94.68
2022-12-23T02:33:29.920Z,94.75
2022-12-23T02:36:47.062Z,94.92
2022-12-23T02:39:58.828Z,94.92
2022-12-23T02:43:16.036Z,94.78
2022-12-23T02:46:43.688Z,95.03
2022-12-23T02:49:51.727Z,95.25
2022-12-23T02:52:57.333Z,95.11
2022-12-23T02:56:02.158Z,95.32
2022-12-23T02:59:13.108Z,95.23
2022-12-23T03:02:15.485Z,95.11
2022-12-23T03:05:28.077Z,95.83
2022-12-23T03:08:43.505Z,95.39
2022-12-23T03:11:57.491Z,95.71
2022-12-23T03:15:24.596Z,95.55
2022-12-23T03:18:29.157Z,95.91
2022-12-23T03:21:55.596Z,95.61
2022-12-23T03:25:06.292Z,95.99
2022-12-23T03:28:16.239Z,95.83
2022-12-23T03:31:24.725Z,95.91
2022-12-23T03:34:31.308Z,96.01
2022-12-23T03:37:37.432Z,95.97
2022-12-23T03:40:43.664Z,96.15
2022-12-23T03:43:55.289Z,96.01
2022-12-23T03:47:10.134Z,95.77
2022-12-23T03:50:15.226Z,95.95
2022-12-23T03:53:24.297Z,95.63
2022-12-23T03:56:33.076Z,95.87
2022-12-23T03:59:39.086Z,95.65
2022-12-23T04:03:04.353Z,95.62
2022-12-23T04:06:12.418Z,95.28
2022-12-23T04:09:21.740Z,95.60
2022-12-23T04:12:27.336Z,95.36
2022-12-23T04:15:29.875Z,95.00
2022-12-23T04:18:31.756Z,95.04
2022-12-23T04:21:33.504Z,95.40
2022-12-23T04:24:35.323Z,94.98
2022-12-23T04:27:37.347Z,95.21
2022-12-23T04:30:39.140Z,94.92
2022-12-23T04:33:41.076Z,95.17
2022-12-23T04:36:42.922Z,95.16
2022-12-23T04:39:44.756Z,95.01
2022-12-23T04:42:46.644Z,94.79
2022-12-23T04:45:52.008Z,94.64
2022-12-23T04:48:53.980Z,94.30
2022-12-23T04:51:55.756Z,94.67
2022-12-23T04:54:57.571Z,94.50
2022-12-23T04:57:59.396Z,94.38
2022-12-23T05:01:06.566Z,94.66
2022-12-23T05:04:10.152Z,94.08
2022-12-23T05:07:12.099Z,94.32
2022-12-23T05:10:14.920Z,94.36
2022-12-23T05:13:16.725Z,94.23
2022-12-23T05:16:18.747Z,94.18
2022-12-23T05:19:20.572Z,94.06
2022-12-23T05:22:22.419Z,94.20
2022-12-23T05:25:24.321Z,94.00
2022-12-23T05:28:26.149Z,94.23
2022-12-23T05:31:28.182Z,94.11
2022-12-23T05:34:30.155Z,94.13
2022-12-23T05:37:32.121Z,94.22
2022-12-23T05:40:33.929Z,94.13
2022-12-23T05:43:36.104Z,94.03
2022-12-23T05:46:38.036Z,94.14
2022-12-23T05:49:40.044Z,94.10
2022-12-23T05:52:42.255Z,94.10
2022-12-23T05:55:44.143Z,93.84
2022-12-23T05:58:45.990Z,93.97
2022-12-23T06:01:47.918Z,93.97
2022-12-23T06:04:49.861Z,93.87
2022-12-23T06:07:51.655Z,93.60
2022-12-23T06:10:54.036Z,93.75
2022-12-23T06:13:55.942Z,93.78
2022-12-23T06:16:58.031Z,93.72
2022-12-23T06:20:00.057Z,93.72
2022-12-23T06:23:03.008Z,93.42
2022-12-23T06:26:04.835Z,93.58
2022-12-23T06:29:06.782Z,93.46
2022-12-23T06:32:08.951Z,93.28
2022-12-23T06:35:10.999Z,93.44
2022-12-23T06:38:12.909Z,93.71
2022-12-23T06:41:15.014Z,93.31
2022-12-23T06:44:17.219Z,93.44
2022-12-23T06:47:19.103Z,93.53
2022-12-23T06:50:20.924Z,93.11
2022-12-23T06:53:22.812Z,93.33
2022-12-23T06:56:24.708Z,93.16
2022-12-23T06:59:27.023Z,93.06
2022-12-23T07:02:28.969Z,93.11
2022-12-23T07:05:37.079Z,92.95
2022-12-23T07:08:39.568Z,93.23
2022-12-23T07:11:41.437Z,93.31
2022-12-23T07:14:43.338Z,93.00
2022-12-23T07:17:45.179Z,93.13
2022-12-23T07:20:47.055Z,92.77
2022-12-23T07:23:48.963Z,93.03
2022-12-23T07:26:51.525Z,92.78
2022-12-23T07:29:53.311Z,92.97
2022-12-23T07:32:55.137Z,93.08
2022-12-23T07:36:00.325Z,92.87
2022-12-23T07:39:02.170Z,92.99
2022-12-23T07:42:33.798Z,92.60
2022-12-23T07:45:27.367Z,93.13
2022-12-23T07:48:29.377Z,93.18
2022-12-23T07:51:32.121Z,92.76
2022-12-23T07:54:36.802Z,92.90
2022-12-23T07:57:40.005Z,92.82
2022-12-23T08:00:41.784Z,92.89
2022-12-23T08:03:43.748Z,92.60
2022-12-23T08:06:45.664Z,92.67
2022-12-23T08:09:47.515Z,92.86
2022-12-23T08:12:49.483Z,92.49
2022-12-23T08:15:59.010Z,92.76
2022-12-23T08:19:00.922Z,92.93
2022-12-23T08:22:03.038Z,92.52
2022-12-23T08:25:05.262Z,92.78
2022-12-23T08:28:07.114Z,92.40
2022-12-23T08:31:22.050Z,92.66
2022-12-23T08:34:24.033Z,92.46
2022-12-23T08:37:25.958Z,92.69
2022-12-23T08:40:27.783Z,92.42
2022-12-23T08:43:35.502Z,92.37
2022-12-23T08:46:38.526Z,92.41
2022-12-23T08:49:40.487Z,92.28
2022-12-23T08:52:42.268Z,92.28
2022-12-23T08:55:47.248Z,92.21
2022-12-23T08:58:51.109Z,91.93
2022-12-23T09:01:54.182Z,92.18
2022-12-23T09:04:57.155Z,91.85
2022-12-23T09:07:59.301Z,91.62
2022-12-23T09:11:01.465Z,91.89
2022-12-23T09:14:04.577Z,91.72
2022-12-23T09:17:06.469Z,91.59
2022-12-23T09:20:08.891Z,91.65
2022-12-23T09:23:10.847Z,91.47
2022-12-23T09:26:19.722Z,91.20
2022-12-23T09:29:21.684Z,91.44
2022-12-23T09:32:23.574Z,91.47
2022-12-23T09:35:25.565Z,91.25
2022-12-23T09:38:27.459Z,91.29
2022-12-23T09:41:48.953Z,91.33
2022-12-23T09:44:53.543Z,91.29
2022-12-23T09:47:56.701Z,91.25
2022-12-23T09:51:00.817Z,91.38
2022-12-23T09:54:30.681Z,91.37
2022-12-23T09:57:32.496Z,91.18
2022-12-23T10:00:42.876Z,91.30
2022-12-23T10:04:02.949Z,91.35
2022-12-23T10:07:04.853Z,91.62
2022-12-23T10:10:17.487Z,91.44
2022-12-23T10:13:27.932Z,91.56
2022-12-23T10:16:38.363Z,91.55
2022-12-23T10:19:47.390Z,91.42
2022-12-23T10:22:50.057Z,91.50
2022-12-23T10:25:52.687Z,91.62
2022-12-23T10:29:01.351Z,91.37
2022-12-23T10:32:27.772Z,91.49
2022-12-23T10:36:00.592Z,91.18
2022-12-23T10:39:17.239Z,91.44
2022-12-23T10:42:36.912Z,91.25
2022-12-23T10:45:41.522Z,91.31
2022-12-23T10:48:46.090Z,91.23
2022-12-23T10:51:59.249Z,91.42
2022-12-23T10:55:00.980Z,91.24
2022-12-23T10:58:18.254Z,91.26
2022-12-23T11:01:26.568Z,91.34
2022-12-23T11:04:35.266Z,91.30
2022-12-23T11:07:45.652Z,91.34
2022-12-23T11:10:49.043Z,91.45
2022-12-23T11:13:51.111Z,91.28
2022-12-23T11:16:52.998Z,91.52
2022-12-23T11:20:19.984Z,91.24
2022-12-23T11:23:33.554Z,91.36
2022-12-23T11:26:36.074Z,91.31
2022-12-23T11:29:43.872Z,91.24
2022-12-23T11:32:45.830Z,91.24
2022-12-23T11:35:47.834Z,91.32
2022-12-23T11:39:09.683Z,91.30
2022-12-23T11:42:19.754Z,91.22
2022-12-23T11:45:24.833Z,91.17
2022-12-23T11:48:29.559Z,91.18
2022-12-23T11:51:31.449Z,91.29
2022-12-23T11:54:34.156Z,91.20
2022-12-23T11:57:42.338Z,91.32
2022-12-23T12:00:56.035Z,91.49
2022-12-23T12:04:06.646Z,91.38
2022-12-23T12:07:13.448Z,91.19
2022-12-23T12:10:22.404Z,91.25
2022-12-23T12:13:28.431Z,91.41
2022-12-23T12:16:56.914Z,91.44
2022-12-23T12:20:21.821Z,91.44
2022-12-23T12:23:40.448Z,91.42
2022-12-23T12:26:47.128Z,91.67
2022-12-23T12:29:55.846Z,91.43
2022-12-23T12:33:05.436Z,91.34
2022-12-23T12:36:16.554Z,91.48
2022-12-23T12:39:30.589Z,91.71
2022-12-23T12:42:40.787Z,91.63
2022-12-23T12:46:00.154Z,91.51
2022-12-23T12:49:13.981Z,91.57
2022-12-23T12:52:20.428Z,91.52
2022-12-23T12:55:32.780Z,91.80
2022-12-23T12:58:34.601Z,91.47
2022-12-23T13:01:39.204Z,91.28
2022-12-23T13:05:05.515Z,91.45
2022-12-23T13:08:36.190Z,91.46
2022-12-23T13:11:54.675Z,91.42
2022-12-23T13:15:04.553Z,91.33
2022-12-23T13:18:33.775Z,91.54
2022-12-23T13:21:44.553Z,91.47
2022-12-23T13:25:20.053Z,91.34
2022-12-23T13:28:46.247Z,91.37
2022-12-23T13:31:59.093Z,91.44
2022-12-23T13:35:22.804Z,91.28
2022-12-23T13:38:49.224Z,91.50
2022-12-23T13:41:56.432Z,91.36
2022-12-23T13:45:03.961Z,91.41
2022-12-23T13:48:24.121Z,91.56
2022-12-23T13:51:25.925Z,91.45
2022-12-23T13:54:27.819Z,91.45
2022-12-23T13:57:50.999Z,91.54
2022-12-23T14:01:07.844Z,91.29
2022-12-23T14:04:52.416Z,91.44
2022-12-23T14:07:54.899Z,91.60
2022-12-23T14:11:02.442Z,91.36
2022-12-23T14:14:07.308Z,91.31
2022-12-23T14:17:20.701Z,91.29
2022-12-23T14:20:34.510Z,91.26
2022-12-23T14:23:44.997Z,91.03
2022-12-23T14:27:14.358Z,91.00
2022-12-23T14:30:36.319Z,91.14
2022-12-23T14:33:38.257Z,91.06
2022-12-23T14:36:40.233Z,91.12
2022-12-23T14:39:43.869Z,91.03
2022-12-23T14:42:45.835Z,91.16
2022-12-23T14:45:49.814Z,91.10
2022-12-23T14:49:09.672Z,90.82
2022-12-23T14:52:38.072Z,90.81
2022-12-23T14:55:47.310Z,90.76
2022-12-23T14:58:56.696Z,90.72
2022-12-23T15:02:16.969Z,90.87
2022-12-23T15:05:23.396Z,91.11
2022-12-23T15:08:31.201Z,90.95
2022-12-23T15:11:34.886Z,91.17
2022-12-23T15:15:23.404Z,91.05
2022-12-23T15:18:25.626Z,90.85
2022-12-23T15:21:30.493Z,90.99
2022-12-23T15:24:32.673Z,90.90
2022-12-23T15:27:36.849Z,91.14
2022-12-23T15:30:52.192Z,90.96
2022-12-23T15:34:05.245Z,90.83
2022-12-23T15:37:13.127Z,91.03
2022-12-23T15:40:25.603Z,91.10
2022-12-23T15:43:27.937Z,90.98
2022-12-23T15:46:31.868Z,91.00
2022-12-23T15:49:34.195Z,91.19
2022-12-23T15:52:41.555Z,90.98
2022-12-23T15:55:43.697Z,91.05
2022-12-23T15:58:45.898Z,91.24
2022-12-23T16:01:48.021Z,91.51
2022-12-23T16:04:55.069Z,91.23
2022-12-23T16:08:13.916Z,91.40
2022-12-23T16:11:18.838Z,91.45
2022-12-23T16:14:32.591Z,91.53
2022-12-23T16:17:36.130Z,91.73
2022-12-23T16:20:45.591Z,91.57
2022-12-23T16:23:51.736Z,91.85
2022-12-23T16:26:56.353Z,91.36
2022-12-23T16:30:10.889Z,91.66
2022-12-23T16:33:48.395Z,91.74
2022-12-23T16:36:50.270Z,91.83
2022-12-23T16:39:52.055Z,91.73
2022-12-23T16:42:54.307Z,92.06
2022-12-23T16:45:57.534Z,91.80
2022-12-23T16:49:04.592Z,91.84
2022-12-23T16:52:09.236Z,91.83
2022-12-23T16:55:19.494Z,91.99
2022-12-23T16:58:21.414Z,92.04
2022-12-23T17:01:29.841Z,92.13
2022-12-23T17:04:31.955Z,92.01
2022-12-23T17:07:33.870Z,91.80
2022-12-23T17:10:37.130Z,92.04
2022-12-23T17:13:39.072Z,92.01
2022-12-23T17:16:40.966Z,92.06
2022-12-23T17:19:42.926Z,92.12
2022-12-23T17:22:47.606Z,91.91
2022-12-23T17:25:49.424Z,91.88
2022-12-23T17:28:51.333Z,92.13
2022-12-23T17:31:53.347Z,91.82
2022-12-23T17:34:55.264Z,91.90
2022-12-23T17:37:57.070Z,92.14
2022-12-23T17:40:59.060Z,92.03
2022-12-23T17:44:01.338Z,91.83
2022-12-23T17:47:10.556Z,91.92
2022-12-23T17:50:12.335Z,91.76
2022-12-23T17:53:18.589Z,91.80
2022-12-23T17:56:21.479Z,91.82
2022-12-23T17:59:23.274Z,91.88
2022-12-23T18:02:25.270Z,91.92
2022-12-23T18:05:33.155Z,91.69
2022-12-23T18:08:34.981Z,91.71
2022-12-23T18:11:41.863Z,91.89
2022-12-23T18:14:45.053Z,91.76
2022-12-23T18:17:47.166Z,91.76
2022-12-23T18:20:51.349Z,91.82
2022-12-23T18:23:55.245Z,91.97
2022-12-23T18:26:57.104Z,91.75
2022-12-23T18:29:58.883Z,91.93
2022-12-23T18:33:00.713Z,91.88
2022-12-23T18:36:02.584Z,91.71
2022-12-23T18:39:04.397Z,91.90
2022-12-23T18:42:06.743Z,91.82
2022-12-23T18:45:20.398Z,91.61
2022-12-23T18:48:22.288Z,91.81
2022-12-23T18:51:24.215Z,91.72
2022-12-23T18:54:25.992Z,91.49
2022-12-23T18:57:27.843Z,91.67
2022-12-23T19:00:31.282Z,91.50
2022-12-23T19:03:33.451Z,91.62
2022-12-23T19:06:35.387Z,91.61
2022-12-23T19:09:37.184Z,91.70
2022-12-23T19:12:39.178Z,91.61
2022-12-23T19:15:44.779Z,91.42
2022-12-23T19:18:48.161Z,91.49
2022-12-23T19:21:50.018Z,91.59
2022-12-23T19:25:04.544Z,91.66
2022-12-23T19:28:09.785Z,91.60
2022-12-23T19:31:14.522Z,91.36
2022-12-23T19:34:16.446Z,91.34
2022-12-23T19:37:18.727Z,91.42
2022-12-23T19:40:20.574Z,91.55
2022-12-23T19:43:22.390Z,91.54
2022-12-23T19:46:24.324Z,91.52
2022-12-23T19:49:26.249Z,91.39
2022-12-23T19:52:28.151Z,91.43
2022-12-23T19:55:29.970Z,91.56
2022-12-23T19:58:34.240Z,91.49
2022-12-23T20:01:36.246Z,91.43
2022-12-23T20:04:39.024Z,91.60
2022-12-23T20:07:40.891Z,91.68
2022-12-23T20:10:43.979Z,91.62
2022-12-23T20:13:47.309Z,91.70
2022-12-23T20:16:49.504Z,91.49
2022-12-23T20:19:52.440Z,91.54
2022-12-23T20:22:54.197Z,91.76
2022-12-23T20:25:56.059Z,91.79
2022-12-23T20:28:58.471Z,91.59
2022-12-23T20:32:00.349Z,91.68
2022-12-23T20:35:02.377Z,91.80
2022-12-23T20:38:04.282Z,91.80
2022-12-23T20:41:11.304Z,92.00
2022-12-23T20:47:35.048Z,91.74
2022-12-23T20:50:41.827Z,92.10
2022-12-23T20:53:43.914Z,92.23
2022-12-23T20:56:45.804Z,92.39
2022-12-23T20:59:47.628Z,92.17
2022-12-23T21:02:49.638Z,92.08
2022-12-23T21:05:56.736Z,92.41
2022-12-23T21:09:00.148Z,92.23
2022-12-23T21:12:02.430Z,92.09
2022-12-23T21:15:05.050Z,92.21
2022-12-23T21:18:06.974Z,92.66
2022-12-23T21:21:09.062Z,92.23
2022-12-23T21:24:11.888Z,92.35
2022-12-23T21:27:13.747Z,92.12
2022-12-23T21:30:15.801Z,92.11
2022-12-23T21:33:17.715Z,92.60
2022-12-23T21:36:23.008Z,92.36
2022-12-23T21:39:24.985Z,92.70
2022-12-23T21:42:26.912Z,92.48
2022-12-23T21:45:28.797Z,92.65
2022-12-23T21:48:32.979Z,92.52
2022-12-23T21:51:39.982Z,92.75
2022-12-23T21:54:42.761Z,92.66
2022-12-23T21:57:44.743Z,92.79
2022-12-23T22:00:46.916Z,92.83
2022-12-23T22:03:50.510Z,93.13
2022-12-23T22:06:52.421Z,92.82
2022-12-23T22:09:54.253Z,92.98
2022-12-23T22:12:56.074Z,93.07
2022-12-23T22:15:58.101Z,92.98
2022-12-23T22:19:01.547Z,92.90
2022-12-23T22:22:03.399Z,93.19
2022-12-23T22:25:05.623Z,93.01
2022-12-23T22:28:07.518Z,92.72
2022-12-23T22:31:29.970Z,93.02
2022-12-23T22:34:31.833Z,93.02
2022-12-23T22:37:33.845Z,92.97
2022-12-23T22:40:35.723Z,93.12
2022-12-23T22:43:38.010Z,93.09
2022-12-23T22:46:40.184Z,93.04
2022-12-23T22:49:42.867Z,93.27
2022-12-23T22:52:44.649Z,93.44
2022-12-23T22:55:55.887Z,93.19
2022-12-23T22:58:57.723Z,93.43
2022-12-23T23:01:59.680Z,93.43
2022-12-23T23:05:01.636Z,93.42
2022-12-23T23:08:03.604Z,93.49
2022-12-23T23:11:05.688Z,93.39
2022-12-23T23:14:07.635Z,93.43
2022-12-23T23:17:09.437Z,93.44
2022-12-23T23:20:11.511Z,93.15
2022-12-23T23:23:13.504Z,93.49
2022-12-23T23:26:16.044Z,93.59
2022-12-23T23:29:17.942Z,93.40
2022-12-23T23:32:19.809Z,93.24
2022-12-23T23:35:21.727Z,93.72
2022-12-23T23:38:25.575Z,93.37
2022-12-23T23:41:28.563Z,93.65
2022-12-23T23:44:31.617Z,93.53
2022-12-23T23:47:35.073Z,93.60
2022-12-23T23:50:37.795Z,93.27
2022-12-23T23:53:40.312Z,93.70
2022-12-23T23:56:42.288Z,93.72
2022-12-23T23:59:44.177Z,93.51
